• Join FlightAware (Why Join?)
  • Login
  • US Flag 
03:57PM EDT


 

Airport Tracker/Info


-or-


 

Live Flight TrackerFlight Track Log ✈ UAL4336 ✈ 30-Apr-2013 ✈ KAMA - KIAH

Flight Track Log - Related Links

Times and Time Zones

All times are in EDT time to prevent confusion due to time zone crossing. See the UAL4336 flight status page for this flight to view local times or setup timezone preferences in your user account.

Time Position Orientation Groundspeed Altitude Reporting Facility
EDT Latitude Longitude Course Direction KTS MPH feet Rate Location/Type
07:36AM 35.1450 -101.6989 130° Southeast 228 262 8,000  Level Albuquerque Center
07:37AM 35.1081 -101.6286 123° Southeast 246 283 10,000 1,500 Climbing Albuquerque Center
07:38AM 35.0436 -101.3727 126° Southeast  Level FlightAware Approximate
07:38AM 35.0633 -101.5447 123° Southeast 291 335 11,100  Level Albuquerque Center
07:39AM 34.9935 -101.2891 126° Southeast  Level FlightAware Approximate
07:39AM 35.0114 -101.4489 123° Southeast 330 380 12,200  Level Albuquerque Center
07:40AM 34.9434 -101.2057 126° Southeast  Level FlightAware Approximate
07:40AM 34.9547 -101.3442 123° Southeast 360 414 13,500  Level Albuquerque Center
07:41AM 34.8944 -101.1254 130° Southeast  Level FlightAware Approximate
07:41AM 34.8967 -101.2372 123° Southeast 375 432 15,100  Level Albuquerque Center
07:42AM 34.8412 -101.0492 130° Southeast  Level FlightAware Approximate
07:42AM 34.8375 -101.1300 124° Southeast 382 440 16,700  Level Albuquerque Center
07:43AM 34.7781 -101.0208 124° Southeast 384 442 18,500 1,800 Climbing Albuquerque Center
07:44AM 34.7181 -100.9103 123° Southeast 388 447 20,400 1,980 Climbing Albuquerque Center
07:45AM 34.6594 -100.8039 124° Southeast 386 444 22,500 1,740 Climbing Albuquerque Center
07:46AM 34.5983 -100.6972 125° Southeast 384 442 24,000 1,500 Climbing Albuquerque Center
07:47AM 34.5383 -100.5872 123° Southeast 387 445 25,500 1,500 Climbing Albuquerque Center
07:48AM 34.4758 -100.4761 124° Southeast 394 453 27,100 1,500 Climbing Albuquerque Center
07:49AM 34.4147 -100.3672 124° Southeast 393 452 28,600 900 Climbing Albuquerque Center
07:50AM 34.3506 -100.2575 125° Southeast 399 459 29,000 180 Climbing Albuquerque Center
07:51AM 34.2556 -100.1247 131° Southeast 431 496 29,000  Level Albuquerque Center
07:52AM 34.1892 -100.0289 130° Southeast 448 516 29,000  Level Albuquerque Center
07:53AM 34.1053 -99.9097 130° Southeast 461 531 29,000  Level Albuquerque Center
07:54AM 34.0211 -99.7903 130° Southeast 466 536 29,000  Level Albuquerque Center
07:55AM 33.9375 -99.6728 131° Southeast 463 533 29,000  Level Albuquerque Center
07:57AM 33.8239 -99.5111 130° Southeast 463 533 29,000  Level Fort Worth Center
07:58AM 33.7422 -99.3967 131° Southeast 463 533 29,000  Level Fort Worth Center
07:59AM 33.6564 -99.2775 131° Southeast 463 533 29,000  Level Fort Worth Center
08:00AM 33.5725 -99.1611 131° Southeast 463 533 29,000  Level Fort Worth Center
08:01AM 33.4928 -99.0475 130° Southeast 463 533 29,000  Level Fort Worth Center
08:02AM 33.4086 -98.9339 132° Southeast 463 533 29,000  Level Fort Worth Center
08:03AM 33.3264 -98.8181 130° Southeast 463 533 29,000  Level Fort Worth Center
08:04AM 33.2422 -98.7025 131° Southeast 463 533 29,000  Level Fort Worth Center
08:05AM 33.1578 -98.5847 131° Southeast 463 533 29,000  Level Fort Worth Center
08:06AM 33.0689 -98.4694 133° Southeast 469 540 29,000  Level Fort Worth Center
08:07AM 32.9906 -98.3569 130° Southeast 458 527 29,000  Level Fort Worth Center
08:08AM 32.9058 -98.2422 131° Southeast 458 527 29,000  Level Fort Worth Center
08:09AM 32.8231 -98.1328 132° Southeast 462 532 29,000  Level Fort Worth Center
08:10AM 32.7381 -98.0161 131° Southeast 462 532 29,000  Level Fort Worth Center
08:11AM 32.6528 -97.9069 133° Southeast 462 532 29,000  Level Fort Worth Center
08:12AM 32.5633 -97.7981 134° Southeast 452 520 29,000  Level Fort Worth Center
08:13AM 32.4822 -97.6992 134° Southeast 452 520 29,000  Level Fort Worth Center
08:14AM 32.3886 -97.5783 133° Southeast 452 520 29,000  Level Fort Worth Center
08:15AM 32.3094 -97.4797 134° Southeast 452 520 29,000  Level Fort Worth Center
08:16AM 32.2111 -97.3594 134° Southeast 452 520 29,000  Level Fort Worth Center
08:17AM 32.1297 -97.2639 135° Southeast 452 520 29,000  Level Fort Worth Center
08:18AM 32.0294 -97.1756 143° Southeast 464 534 29,000  Level Fort Worth Center
08:19AM 31.9228 -97.0903 146° Southeast 464 534 29,000  Level Fort Worth Center
08:19AM 31.8500 -97.0294 145° Southeast 466 536 29,000  Level Houston Center
08:20AM 31.8161 -97.0050 148° Southeast 464 534 29,000  Level Fort Worth Center
08:21AM 31.7008 -96.9081 144° Southeast 464 534 29,000  Level Fort Worth Center
08:22AM 31.5286 -96.7675 145° Southeast 462 532 29,000  Level Houston Center
08:23AM 31.4239 -96.6792 144° Southeast 458 527 29,000  Level Houston Center
08:24AM 31.3197 -96.5892 144° Southeast 459 528 29,000  Level Houston Center
08:25AM 31.2158 -96.5025 144° Southeast 453 521 29,000 -600 Level Houston Center
08:26AM 31.1117 -96.4142 144° Southeast 454 522 27,800 -1,680 Descending Houston Center
08:27AM 31.0083 -96.3261 144° Southeast 453 521 25,600 -1,440 Descending Houston Center
08:28AM 30.9069 -96.2419 145° Southeast 443 510 24,900 -1,680 Descending Houston Center
08:29AM 30.8061 -96.1581 144° Southeast 439 505 22,200 -2,880 Descending Houston Center
08:30AM 30.7697 -96.1275 144° Southeast 437 503 21,100 -3,120 Descending Houston Center
08:30AM 30.7072 -96.0744 144° Southeast 435 501 19,000 -3,360 Descending Houston Center
08:31AM 30.6092 -95.9928 144° Southeast 413 475 15,700 -3,240 Descending Houston Center
08:32AM 30.5189 -95.9183 145° Southeast 394 453 12,800 -1,920 Descending Houston Center
08:33AM 30.4417 -95.8522 144° Southeast 375 432 12,000 -660 Descending Houston Center
08:34AM 30.3539 -95.7608 138° Southeast 381 438 11,500 -720 Descending Houston Center
08:35AM 30.2775 -95.6803 138° Southeast 352 405 10,500 -1,140 Descending Houston Center
08:36AM 30.2197 -95.6194 138° Southeast 290 334 9,300 -1,200 Descending Houston Center
08:37AM 30.2133 -95.6119 135° Southeast 306 352 9,100 -1,740 Descending Houston Center
08:37AM 30.1594 -95.5564 138° Southeast 269 310 7,400 -1,680 Descending Houston Center
08:39AM 30.1092 -95.4875 130° Southeast 274 315 6,000 -1,080 Descending Houston Center
08:40AM 30.1056 -95.4011 93° East 261 300 5,300 -1,500 Descending Houston Center
08:40AM 30.1056 -95.3311 90° East 239 275 3,100 -2,160 Descending Houston Center
08:41AM 30.1011 -95.3111 104° East 250 288 2,700 -1,140 Descending Houston Center
08:41AM 30.0764 -95.2644 121° Southeast 214 246 2,000 -720 Descending Houston Center
08:42AM 30.0689 -95.2528 127° Southeast 228 262 2,000 -240 Level Houston Center
08:42AM 30.0261 -95.2442 170° South 184 212 1,800 -420 Descending Houston Center
08:43AM 30.0189 -95.2528 226° Southwest 203 234 1,600 -900 Descending Houston Center
08:44AM 30.0072 -95.2897 250° West 146 168 900 -900 Descending Houston Center
08:44AM 30.0078 -95.2972 275° West 166 191 700 -480 Descending Houston Center
08:45AM 30.0067 -95.3503 269° West 157 181 300 -420 Descending Houston Center